createdAt,value
2022-11-18T00:00:56.982Z,100.00
2022-11-18T00:03:23.346Z,100.00
2022-11-18T00:05:53.842Z,100.00
2022-11-18T00:08:19.913Z,100.00
2022-11-18T00:10:45.685Z,100.00
2022-11-18T00:13:30.970Z,100.00
2022-11-18T00:16:04.794Z,100.00
2022-11-18T00:18:31.016Z,100.00
2022-11-18T00:21:07.758Z,100.00
2022-11-18T00:23:34.088Z,100.00
2022-11-18T00:26:08.558Z,100.00
2022-11-18T00:28:34.685Z,100.00
2022-11-18T00:31:20.692Z,100.00
2022-11-18T00:33:46.359Z,100.00
2022-11-18T00:36:12.029Z,100.00
2022-11-18T00:38:38.685Z,100.00
2022-11-18T00:41:07.325Z,100.00
2022-11-18T00:43:34.178Z,100.00
2022-11-18T00:46:00.661Z,100.00
2022-11-18T00:48:26.658Z,100.00
2022-11-18T00:50:55.224Z,100.00
2022-11-18T00:53:23.254Z,100.00
2022-11-18T00:55:49.967Z,100.00
2022-11-18T00:58:16.431Z,100.00
2022-11-18T01:00:49.709Z,100.00
2022-11-18T01:03:15.657Z,100.00
2022-11-18T01:05:41.703Z,100.00
2022-11-18T01:08:09.218Z,100.00
2022-11-18T01:10:36.710Z,100.00
2022-11-18T01:13:18.806Z,100.00
2022-11-18T01:15:53.980Z,100.00
2022-11-18T01:18:22.607Z,100.00
2022-11-18T01:20:48.434Z,100.00
2022-11-18T01:23:15.485Z,100.00
2022-11-18T01:25:43.586Z,100.00
2022-11-18T01:28:09.750Z,100.00
2022-11-18T01:30:37.270Z,100.00
2022-11-18T01:33:04.270Z,100.00
2022-11-18T01:35:38.560Z,100.00
2022-11-18T01:38:05.303Z,100.00
2022-11-18T01:40:32.317Z,100.00
2022-11-18T01:42:58.394Z,100.00
2022-11-18T01:45:31.924Z,100.00
2022-11-18T01:48:06.825Z,100.00
2022-11-18T01:50:35.106Z,100.00
2022-11-18T01:53:14.745Z,100.00
2022-11-18T01:55:45.605Z,100.00
2022-11-18T01:58:21.501Z,100.00
2022-11-18T02:00:47.416Z,100.00
2022-11-18T02:03:13.591Z,100.00
2022-11-18T02:05:40.980Z,100.00
2022-11-18T02:08:07.284Z,100.00
2022-11-18T02:10:33.209Z,100.00
2022-11-18T02:12:59.846Z,100.00
2022-11-18T02:15:52.317Z,100.00
2022-11-18T02:18:51.701Z,100.00
2022-11-18T02:21:33.470Z,100.00
2022-11-18T02:24:27.100Z,100.00
2022-11-18T02:27:14.615Z,100.00
2022-11-18T02:29:52.890Z,100.00
2022-11-18T02:32:27.117Z,100.00
2022-11-18T02:35:01.300Z,100.00
2022-11-18T02:37:41.725Z,100.00
2022-11-18T02:40:19.338Z,100.00
2022-11-18T02:42:56.278Z,100.00
2022-11-18T02:45:23.415Z,100.00
2022-11-18T02:47:51.142Z,100.00
2022-11-18T02:50:22.455Z,100.00
2022-11-18T02:52:54.027Z,100.00
2022-11-18T02:55:23.051Z,100.00
2022-11-18T02:57:48.995Z,100.00
2022-11-18T03:00:15.657Z,100.00
2022-11-18T03:02:44.621Z,100.00
2022-11-18T03:05:19.099Z,100.00
2022-11-18T03:07:49.730Z,100.00
2022-11-18T03:10:16.110Z,100.00
2022-11-18T03:12:50.193Z,100.00
2022-11-18T03:15:23.378Z,100.00
2022-11-18T03:18:06.788Z,100.00
2022-11-18T03:20:48.713Z,100.00
2022-11-18T03:23:37.810Z,100.00
2022-11-18T03:26:38.971Z,100.00
2022-11-18T03:29:09.666Z,100.00
2022-11-18T03:31:43.181Z,100.00
2022-11-18T03:34:16.687Z,100.00
2022-11-18T03:37:00.525Z,100.00
2022-11-18T03:39:31.987Z,100.00
2022-11-18T03:42:08.829Z,100.00
2022-11-18T03:44:39.219Z,100.00
2022-11-18T03:47:20.809Z,100.00
2022-11-18T03:49:53.821Z,100.00
2022-11-18T03:52:26.160Z,100.00
2022-11-18T03:54:56.060Z,100.00
2022-11-18T03:57:32.906Z,100.00
2022-11-18T04:00:01.820Z,100.00
2022-11-18T04:02:29.661Z,100.00
2022-11-18T04:04:57.671Z,100.00
2022-11-18T04:07:29.250Z,100.00
2022-11-18T04:10:10.331Z,100.00
2022-11-18T04:12:46.072Z,100.00
2022-11-18T04:15:12.049Z,100.00
2022-11-18T04:17:40.751Z,100.00
2022-11-18T04:20:08.820Z,100.00
2022-11-18T04:22:34.626Z,100.00
2022-11-18T04:25:00.374Z,100.00
2022-11-18T04:27:26.158Z,100.00
2022-11-18T04:29:51.975Z,100.00
2022-11-18T04:32:17.807Z,100.00
2022-11-18T04:34:43.614Z,100.00
2022-11-18T04:37:09.479Z,100.00
2022-11-18T04:39:35.274Z,100.00
2022-11-18T04:42:01.093Z,100.00
2022-11-18T04:44:29.295Z,100.00
2022-11-18T04:46:56.547Z,100.00
2022-11-18T04:49:23.778Z,100.00
2022-11-18T04:51:50.773Z,100.00
2022-11-18T04:54:17.675Z,100.00
2022-11-18T04:56:49.403Z,100.00
2022-11-18T04:59:19.981Z,100.00
2022-11-18T05:01:46.591Z,100.00
2022-11-18T05:04:16.946Z,100.00
2022-11-18T05:06:43.299Z,100.00
2022-11-18T05:09:09.708Z,100.00
2022-11-18T05:11:54.431Z,100.00
2022-11-18T05:14:20.417Z,100.00
2022-11-18T05:16:46.266Z,100.00
2022-11-18T05:19:12.335Z,100.00
2022-11-18T05:21:38.392Z,100.00
2022-11-18T05:24:04.673Z,100.00
2022-11-18T05:26:30.500Z,100.00
2022-11-18T05:28:56.505Z,100.00
2022-11-18T05:31:22.790Z,100.00
2022-11-18T05:33:48.557Z,100.00
2022-11-18T05:36:19.108Z,100.00
2022-11-18T05:38:45.375Z,100.00
2022-11-18T05:41:31.618Z,100.00
2022-11-18T05:43:57.820Z,100.00
2022-11-18T05:46:23.752Z,100.00
2022-11-18T05:48:49.589Z,100.00
2022-11-18T05:51:15.535Z,100.00
2022-11-18T05:53:41.778Z,100.00
2022-11-18T05:56:33.573Z,100.00
2022-11-18T05:58:59.426Z,100.00
2022-11-18T06:01:29.791Z,100.00
2022-11-18T06:03:56.548Z,100.00
2022-11-18T06:06:23.989Z,100.00
2022-11-18T06:09:00.533Z,100.00
2022-11-18T06:11:27.143Z,100.00
2022-11-18T06:14:02.355Z,100.00
2022-11-18T06:16:37.895Z,100.00
2022-11-18T06:19:06.773Z,100.00
2022-11-18T06:21:32.990Z,100.00
2022-11-18T06:23:59.287Z,100.00
2022-11-18T06:26:25.197Z,100.00
2022-11-18T06:28:51.035Z,100.00
2022-11-18T06:31:16.945Z,100.00
2022-11-18T06:33:42.760Z,100.00
2022-11-18T06:36:08.855Z,100.00
2022-11-18T06:38:34.713Z,100.00
2022-11-18T06:41:00.955Z,100.00
2022-11-18T06:43:40.615Z,100.00
2022-11-18T06:46:35.411Z,100.00
2022-11-18T06:49:02.017Z,100.00
2022-11-18T06:51:28.855Z,100.00
2022-11-18T06:53:54.985Z,100.00
2022-11-18T06:56:21.989Z,100.00
2022-11-18T06:58:53.008Z,100.00
2022-11-18T07:01:23.319Z,100.00
2022-11-18T07:03:49.848Z,100.00
2022-11-18T07:06:19.083Z,100.00
2022-11-18T07:08:46.190Z,100.00
2022-11-18T07:11:21.141Z,100.00
2022-11-18T07:13:47.317Z,100.00
2022-11-18T07:16:18.174Z,100.00
2022-11-18T07:18:45.207Z,100.00
2022-11-18T07:21:13.290Z,100.00
2022-11-18T07:23:39.142Z,100.00
2022-11-18T07:26:05.684Z,100.00
2022-11-18T07:28:31.927Z,100.00
2022-11-18T07:31:01.891Z,100.00
2022-11-18T07:33:27.923Z,100.00
2022-11-18T07:35:53.710Z,100.00
2022-11-18T07:38:19.569Z,100.00
2022-11-18T07:40:45.419Z,100.00
2022-11-18T07:43:11.255Z,100.00
2022-11-18T07:45:37.037Z,100.00
2022-11-18T07:48:03.101Z,100.00
2022-11-18T07:50:28.893Z,100.00
2022-11-18T07:52:56.747Z,100.00
2022-11-18T07:55:24.918Z,100.00
2022-11-18T07:57:54.967Z,100.00
2022-11-18T08:00:20.910Z,100.00
2022-11-18T08:02:49.931Z,100.00
2022-11-18T08:05:18.098Z,100.00
2022-11-18T08:07:44.424Z,100.00
2022-11-18T08:10:10.266Z,100.00
2022-11-18T08:12:36.109Z,100.00
2022-11-18T08:15:02.269Z,100.00
2022-11-18T08:17:28.093Z,100.00
2022-11-18T08:19:53.957Z,100.00
2022-11-18T08:22:20.090Z,100.00
2022-11-18T08:24:47.120Z,100.00
2022-11-18T08:27:13.758Z,100.00
2022-11-18T08:29:39.549Z,100.00
2022-11-18T08:32:05.969Z,100.00
2022-11-18T08:34:31.989Z,100.00
2022-11-18T08:36:57.792Z,100.00
2022-11-18T08:39:26.421Z,100.00
2022-11-18T08:41:52.397Z,100.00
2022-11-18T08:44:18.260Z,100.00
2022-11-18T08:46:45.213Z,100.00
2022-11-18T08:49:11.324Z,100.00
2022-11-18T08:51:37.203Z,100.00
2022-11-18T08:54:03.280Z,100.00
2022-11-18T08:56:29.203Z,100.00
2022-11-18T08:58:55.350Z,100.00
2022-11-18T09:01:21.483Z,100.00
2022-11-18T09:03:48.509Z,100.00
2022-11-18T09:06:17.521Z,100.00
2022-11-18T09:08:43.897Z,100.00
2022-11-18T09:11:18.217Z,100.00
2022-11-18T09:16:34.717Z,100.00
2022-11-18T09:19:18.236Z,100.00
2022-11-18T09:21:46.393Z,100.00
2022-11-18T09:24:12.231Z,100.00
2022-11-18T09:26:38.234Z,100.00
2022-11-18T09:29:04.417Z,100.00
2022-11-18T09:31:30.557Z,100.00
2022-11-18T09:34:01.913Z,100.00
2022-11-18T09:36:30.017Z,100.00
2022-11-18T09:38:58.434Z,100.00
2022-11-18T09:41:41.154Z,100.00
2022-11-18T09:44:48.411Z,100.00
2022-11-18T09:47:34.424Z,100.00
2022-11-18T09:50:20.561Z,100.00
2022-11-18T09:53:08.434Z,100.00
2022-11-18T09:55:37.734Z,100.00
2022-11-18T09:58:04.845Z,100.00
2022-11-18T10:00:31.123Z,100.00
2022-11-18T10:02:58.546Z,100.00
2022-11-18T10:05:28.269Z,100.00
2022-11-18T10:08:11.458Z,100.00
2022-11-18T10:10:56.143Z,100.00
2022-11-18T10:13:47.781Z,100.00
2022-11-18T10:16:31.402Z,100.00
2022-11-18T10:19:24.919Z,100.00
2022-11-18T10:25:00.223Z,100.00
2022-11-18T10:27:34.258Z,100.00
2022-11-18T10:30:00.892Z,100.00
2022-11-18T10:32:27.021Z,100.00
2022-11-18T10:34:55.810Z,100.00
2022-11-18T10:38:06.193Z,100.00
2022-11-18T10:40:26.661Z,100.00
2022-11-18T10:42:52.608Z,100.00
2022-11-18T10:45:21.074Z,100.00
2022-11-18T10:47:56.224Z,100.00
2022-11-18T10:50:30.124Z,100.00
2022-11-18T10:52:56.042Z,100.00
2022-11-18T10:55:29.221Z,100.00
2022-11-18T10:58:08.577Z,100.00
2022-11-18T11:00:41.601Z,100.00
2022-11-18T11:03:30.938Z,100.00
2022-11-18T11:06:21.940Z,100.00
2022-11-18T11:08:50.767Z,100.00
2022-11-18T11:11:34.618Z,100.00
2022-11-18T11:14:17.516Z,100.00
2022-11-18T11:17:12.093Z,100.00
2022-11-18T11:19:50.287Z,100.00
2022-11-18T11:22:17.906Z,100.00
2022-11-18T11:24:44.021Z,100.00
2022-11-18T11:30:23.420Z,100.00
2022-11-18T11:33:01.594Z,100.00
2022-11-18T11:35:46.224Z,100.00
2022-11-18T11:38:21.073Z,100.00
2022-11-18T11:41:10.585Z,100.00
2022-11-18T11:44:22.779Z,100.00
2022-11-18T11:47:11.236Z,100.00
2022-11-18T11:49:46.125Z,94.43
2022-11-18T11:52:19.322Z,78.79
2022-11-18T11:55:09.485Z,63.42
2022-11-18T11:57:47.940Z,62.39
2022-11-18T12:00:17.804Z,72.04
2022-11-18T12:03:10.374Z,81.79
2022-11-18T12:05:39.785Z,91.93
2022-11-18T12:08:12.025Z,93.85
2022-11-18T12:11:12.078Z,86.34
2022-11-18T12:14:06.551Z,77.78
2022-11-18T12:16:50.487Z,59.51
2022-11-18T12:19:19.808Z,46.89
2022-11-18T12:21:45.788Z,40.54
2022-11-18T12:24:17.428Z,37.99
2022-11-18T12:26:45.681Z,39.29
2022-11-18T12:29:20.580Z,43.05
2022-11-18T12:31:48.294Z,51.75
2022-11-18T12:34:32.119Z,59.91
2022-11-18T12:37:23.492Z,74.66
2022-11-18T12:39:55.702Z,80.66
2022-11-18T12:43:02.014Z,85.63
2022-11-18T12:45:40.097Z,91.34
2022-11-18T12:48:30.854Z,94.49
2022-11-18T12:51:00.022Z,97.67
2022-11-18T12:53:33.879Z,100.00
2022-11-18T12:55:59.845Z,100.00
2022-11-18T12:58:26.345Z,100.00
2022-11-18T13:01:10.933Z,100.00
2022-11-18T13:03:37.031Z,100.00
2022-11-18T13:06:21.365Z,100.00
2022-11-18T13:08:54.010Z,100.00
2022-11-18T13:11:39.511Z,100.00
2022-11-18T13:14:31.824Z,100.00
2022-11-18T13:17:16.462Z,100.00
2022-11-18T13:19:42.352Z,100.00
2022-11-18T13:22:36.387Z,100.00
2022-11-18T13:25:02.556Z,100.00
2022-11-18T13:27:39.296Z,100.00
2022-11-18T13:30:12.598Z,100.00
2022-11-18T13:32:46.852Z,100.00
2022-11-18T13:35:19.553Z,100.00
2022-11-18T13:37:57.681Z,100.00
2022-11-18T13:40:25.750Z,100.00
2022-11-18T13:42:51.634Z,100.00
2022-11-18T13:45:19.239Z,100.00
2022-11-18T13:47:58.372Z,100.00
2022-11-18T13:50:34.820Z,100.00
2022-11-18T13:53:07.904Z,100.00
2022-11-18T13:55:38.992Z,100.00
2022-11-18T13:58:22.902Z,100.00
2022-11-18T14:01:00.368Z,100.00
2022-11-18T14:03:32.190Z,100.00
2022-11-18T14:05:58.592Z,100.00
2022-11-18T14:08:30.476Z,100.00
2022-11-18T14:10:56.978Z,100.00
2022-11-18T14:13:32.376Z,100.00
2022-11-18T14:16:21.442Z,100.00
2022-11-18T14:18:50.881Z,100.00
2022-11-18T14:21:29.339Z,100.00
2022-11-18T14:23:55.620Z,100.00
2022-11-18T14:26:36.266Z,100.00
2022-11-18T14:29:23.097Z,100.00
2022-11-18T14:32:10.603Z,100.00
2022-11-18T14:34:36.686Z,100.00
2022-11-18T14:37:10.313Z,100.00
2022-11-18T14:39:37.362Z,100.00
2022-11-18T14:42:05.712Z,100.00
2022-11-18T14:44:32.206Z,100.00
2022-11-18T14:47:01.186Z,100.00
2022-11-18T14:49:30.619Z,100.00
2022-11-18T14:51:57.251Z,100.00
2022-11-18T14:54:26.864Z,100.00
2022-11-18T14:57:04.049Z,100.00
2022-11-18T14:59:30.039Z,100.00
2022-11-18T15:01:56.702Z,100.00
2022-11-18T15:04:22.924Z,100.00
2022-11-18T15:06:48.969Z,100.00
2022-11-18T15:09:14.848Z,100.00
2022-11-18T15:11:40.624Z,100.00
2022-11-18T15:14:06.601Z,100.00
2022-11-18T15:16:34.436Z,100.00
2022-11-18T15:19:02.975Z,100.00
2022-11-18T15:21:29.561Z,100.00
2022-11-18T15:23:55.679Z,100.00
2022-11-18T15:26:34.932Z,100.00
2022-11-18T15:29:01.063Z,100.00
2022-11-18T15:31:26.883Z,100.00
2022-11-18T15:33:53.342Z,100.00
2022-11-18T15:36:21.995Z,100.00
2022-11-18T15:38:48.822Z,100.00
2022-11-18T15:41:26.111Z,100.00
2022-11-18T15:43:53.950Z,100.00
2022-11-18T15:46:21.444Z,100.00
2022-11-18T15:48:50.240Z,100.00
2022-11-18T15:51:16.135Z,100.00
2022-11-18T15:57:32.899Z,100.00
2022-11-18T15:59:58.642Z,100.00
2022-11-18T16:02:24.475Z,100.00
2022-11-18T16:04:50.252Z,100.00
2022-11-18T16:07:16.145Z,100.00
2022-11-18T16:10:00.473Z,100.00
2022-11-18T16:12:48.678Z,100.00
2022-11-18T16:15:34.965Z,100.00
2022-11-18T16:18:02.216Z,100.00
2022-11-18T16:20:28.729Z,100.00
2022-11-18T16:22:55.620Z,100.00
2022-11-18T16:25:22.008Z,100.00
2022-11-18T16:27:47.817Z,100.00
2022-11-18T16:30:32.277Z,100.00
2022-11-18T16:32:58.535Z,100.00
2022-11-18T16:35:25.419Z,100.00
2022-11-18T16:37:51.497Z,100.00
2022-11-18T16:40:17.663Z,100.00
2022-11-18T16:42:43.521Z,100.00
2022-11-18T16:45:09.933Z,100.00
2022-11-18T16:47:37.774Z,100.00
2022-11-18T16:50:04.003Z,100.00
2022-11-18T16:52:29.751Z,100.00
2022-11-18T16:54:55.541Z,100.00
2022-11-18T16:57:22.030Z,100.00
2022-11-18T16:59:47.953Z,100.00
2022-11-18T17:02:14.303Z,100.00
2022-11-18T17:04:40.412Z,100.00
2022-11-18T17:07:07.053Z,100.00
2022-11-18T17:09:33.918Z,100.00
2022-11-18T17:12:00.653Z,100.00
2022-11-18T17:14:28.791Z,100.00
2022-11-18T17:16:54.672Z,100.00
2022-11-18T17:19:23.821Z,100.00
2022-11-18T17:21:52.167Z,100.00
2022-11-18T17:24:22.643Z,100.00
2022-11-18T17:26:51.702Z,100.00
2022-11-18T17:29:17.964Z,100.00
2022-11-18T17:31:44.314Z,100.00
2022-11-18T17:34:12.328Z,100.00
2022-11-18T17:36:38.427Z,100.00
2022-11-18T17:39:04.313Z,100.00
2022-11-18T17:41:48.935Z,100.00
2022-11-18T17:44:17.141Z,100.00
2022-11-18T17:46:44.305Z,100.00
2022-11-18T17:49:15.913Z,100.00
2022-11-18T17:51:41.965Z,100.00
2022-11-18T17:54:09.079Z,100.00
2022-11-18T17:56:35.173Z,100.00
2022-11-18T17:59:01.037Z,100.00
2022-11-18T18:01:26.970Z,100.00
2022-11-18T18:03:52.884Z,100.00
2022-11-18T18:06:20.371Z,100.00
2022-11-18T18:08:46.391Z,100.00
2022-11-18T18:11:14.971Z,100.00
2022-11-18T18:13:59.853Z,100.00
2022-11-18T18:16:26.647Z,100.00
2022-11-18T18:18:52.917Z,100.00
2022-11-18T18:21:19.571Z,100.00
2022-11-18T18:23:45.808Z,100.00
2022-11-18T18:26:12.015Z,100.00
2022-11-18T18:28:38.511Z,100.00
2022-11-18T18:31:07.007Z,100.00
2022-11-18T18:33:33.829Z,100.00
2022-11-18T18:36:00.922Z,100.00
2022-11-18T18:38:30.448Z,100.00
2022-11-18T18:41:01.378Z,100.00
2022-11-18T18:43:27.490Z,100.00
2022-11-18T18:46:21.001Z,100.00
2022-11-18T18:48:46.898Z,100.00
2022-11-18T18:51:12.731Z,100.00
2022-11-18T18:53:39.931Z,100.00
2022-11-18T18:56:06.387Z,100.00
2022-11-18T18:58:32.643Z,100.00
2022-11-18T19:01:10.476Z,100.00
2022-11-18T19:03:36.304Z,100.00
2022-11-18T19:09:10.914Z,100.00
2022-11-18T19:11:56.125Z,100.00
2022-11-18T19:14:23.859Z,100.00
2022-11-18T19:16:50.169Z,100.00
2022-11-18T19:19:45.849Z,100.00
2022-11-18T19:22:13.970Z,100.00
2022-11-18T19:24:49.763Z,100.00
2022-11-18T19:27:17.669Z,100.00
2022-11-18T19:29:44.074Z,100.00
2022-11-18T19:32:09.957Z,100.00
2022-11-18T19:34:35.782Z,100.00
2022-11-18T19:37:01.897Z,100.00
2022-11-18T19:39:27.882Z,100.00
2022-11-18T19:41:53.685Z,100.00
2022-11-18T19:44:19.662Z,100.00
2022-11-18T19:46:45.483Z,100.00
2022-11-18T19:49:11.846Z,100.00
2022-11-18T19:51:38.114Z,100.00
2022-11-18T19:54:04.692Z,100.00
2022-11-18T19:56:30.629Z,100.00
2022-11-18T19:58:56.443Z,100.00
2022-11-18T20:01:27.794Z,100.00
2022-11-18T20:03:56.966Z,100.00
2022-11-18T20:06:24.668Z,100.00
2022-11-18T20:08:50.822Z,100.00
2022-11-18T20:11:19.016Z,100.00
2022-11-18T20:13:46.350Z,100.00
2022-11-18T20:16:15.285Z,100.00
2022-11-18T20:18:42.554Z,100.00
2022-11-18T20:21:11.361Z,100.00
2022-11-18T20:23:37.826Z,100.00
2022-11-18T20:26:11.004Z,100.00
2022-11-18T20:28:38.860Z,100.00
2022-11-18T20:31:06.198Z,100.00
2022-11-18T20:33:36.859Z,100.00
2022-11-18T20:36:14.494Z,100.00
2022-11-18T20:38:41.301Z,100.00
2022-11-18T20:41:11.665Z,100.00
2022-11-18T20:43:39.670Z,100.00
2022-11-18T20:46:07.460Z,100.00
2022-11-18T20:48:34.310Z,100.00
2022-11-18T20:51:10.012Z,100.00
2022-11-18T20:53:38.367Z,100.00
2022-11-18T20:56:05.443Z,100.00
2022-11-18T20:58:32.242Z,100.00
2022-11-18T21:01:12.123Z,100.00
2022-11-18T21:03:38.887Z,100.00
2022-11-18T21:06:14.389Z,100.00
2022-11-18T21:08:42.016Z,100.00
2022-11-18T21:11:10.887Z,100.00
2022-11-18T21:13:56.792Z,100.00
2022-11-18T21:16:24.243Z,100.00
2022-11-18T21:18:50.646Z,100.00
2022-11-18T21:21:35.054Z,100.00
2022-11-18T21:24:02.174Z,100.00
2022-11-18T21:26:30.693Z,100.00
2022-11-18T21:28:59.653Z,100.00
2022-11-18T21:31:26.653Z,100.00
2022-11-18T21:33:53.268Z,100.00
2022-11-18T21:36:20.773Z,100.00
2022-11-18T21:38:47.092Z,100.00
2022-11-18T21:41:13.769Z,100.00
2022-11-18T21:46:26.946Z,100.00
2022-11-18T21:48:57.128Z,100.00
2022-11-18T21:51:25.915Z,100.00
2022-11-18T21:53:51.858Z,100.00
2022-11-18T21:56:20.051Z,100.00
2022-11-18T21:58:49.184Z,100.00
2022-11-18T22:01:16.456Z,100.00
2022-11-18T22:03:44.810Z,100.00
2022-11-18T22:06:12.135Z,100.00
2022-11-18T22:08:38.884Z,100.00
2022-11-18T22:11:07.493Z,100.00
2022-11-18T22:13:33.899Z,100.00
2022-11-18T22:16:01.631Z,100.00
2022-11-18T22:18:32.315Z,100.00
2022-11-18T22:21:03.664Z,100.00
2022-11-18T22:23:31.256Z,100.00
2022-11-18T22:25:58.960Z,100.00
2022-11-18T22:28:25.327Z,100.00
2022-11-18T22:30:51.915Z,100.00
2022-11-18T22:33:19.013Z,100.00
2022-11-18T22:35:45.275Z,100.00
2022-11-18T22:38:11.272Z,100.00
2022-11-18T22:40:37.726Z,100.00
2022-11-18T22:43:03.542Z,100.00
2022-11-18T22:45:29.406Z,100.00
2022-11-18T22:47:55.277Z,100.00
2022-11-18T22:50:21.082Z,100.00
2022-11-18T22:52:46.853Z,100.00
2022-11-18T22:55:12.708Z,100.00
2022-11-18T22:57:38.577Z,100.00
2022-11-18T23:00:05.961Z,100.00
2022-11-18T23:02:31.743Z,100.00
2022-11-18T23:04:57.729Z,100.00
2022-11-18T23:07:23.621Z,100.00
2022-11-18T23:09:49.459Z,100.00
2022-11-18T23:12:33.826Z,100.00
2022-11-18T23:14:59.681Z,100.00
2022-11-18T23:17:25.614Z,100.00
2022-11-18T23:19:51.749Z,100.00
2022-11-18T23:22:18.337Z,100.00
2022-11-18T23:24:44.250Z,100.00
2022-11-18T23:27:10.275Z,100.00
2022-11-18T23:29:36.200Z,100.00
2022-11-18T23:32:02.736Z,100.00
2022-11-18T23:34:29.346Z,100.00
2022-11-18T23:36:55.283Z,100.00
2022-11-18T23:39:21.686Z,100.00
2022-11-18T23:41:48.169Z,100.00
2022-11-18T23:44:14.147Z,100.00
2022-11-18T23:46:39.928Z,100.00
2022-11-18T23:49:09.480Z,100.00
2022-11-18T23:51:35.529Z,100.00
2022-11-18T23:54:01.461Z,100.00
2022-11-18T23:56:27.727Z,100.00
2022-11-18T23:58:55.624Z,100.00
